sensor_id;sensor_type;location;lat;lon;timestamp;noise_LAeq;noise_LA_min;noise_LA_max;noise_LA01;noise_LA95
1754;Laerm;58380;48.312;9.246;2022-07-05T05:36:41;42.00;32.89;59.95;;
1754;Laerm;58380;48.312;9.246;2022-07-05T05:39:10;45.16;33.57;58.60;;
1754;Laerm;58380;48.312;9.246;2022-07-05T05:41:39;43.84;35.34;57.13;;
1754;Laerm;58380;48.312;9.246;2022-07-05T05:44:07;42.29;34.77;60.46;;
1754;Laerm;58380;48.312;9.246;2022-07-05T05:46:36;39.69;32.88;51.49;;
1754;Laerm;58380;48.312;9.246;2022-07-05T05:49:05;44.15;37.08;53.69;;
1754;Laerm;58380;48.312;9.246;2022-07-05T05:51:34;45.94;37.02;57.15;;
1754;Laerm;58380;48.312;9.246;2022-07-05T05:54:05;48.22;38.64;56.90;;
1754;Laerm;58380;48.312;9.246;2022-07-05T05:56:34;64.12;50.43;70.27;;
1754;Laerm;58380;48.312;9.246;2022-07-05T05:59:03;60.37;47.55;68.30;;
1754;Laerm;58380;48.312;9.246;2022-07-05T06:01:32;52.45;43.18;61.86;;
1754;Laerm;58380;48.312;9.246;2022-07-05T06:04:01;54.88;42.68;68.76;;
1754;Laerm;58380;48.312;9.246;2022-07-05T06:06:29;61.31;43.47;71.71;;
1754;Laerm;58380;48.312;9.246;2022-07-05T06:08:58;65.71;46.66;76.50;;
1754;Laerm;58380;48.312;9.246;2022-07-05T06:11:29;71.86;45.47;85.54;;
1754;Laerm;58380;48.312;9.246;2022-07-05T06:13:58;58.58;44.18;75.49;;
1754;Laerm;58380;48.312;9.246;2022-07-05T06:16:27;71.89;48.38;83.75;;
1754;Laerm;58380;48.312;9.246;2022-07-05T06:18:55;68.73;49.08;78.63;;
1754;Laerm;58380;48.312;9.246;2022-07-05T06:21:24;75.95;46.72;90.17;;
1754;Laerm;58380;48.312;9.246;2022-07-05T06:23:52;73.13;50.94;86.87;;
1754;Laerm;58380;48.312;9.246;2022-07-05T06:26:21;73.52;52.69;80.81;;
1754;Laerm;58380;48.312;9.246;2022-07-05T06:28:52;78.79;66.66;94.99;;
1754;Laerm;58380;48.312;9.246;2022-07-05T06:31:20;75.05;60.93;87.44;;
1754;Laerm;58380;48.312;9.246;2022-07-05T06:33:49;71.93;62.71;77.73;;
1754;Laerm;58380;48.312;9.246;2022-07-05T06:36:17;73.87;63.44;79.85;;
1754;Laerm;58380;48.312;9.246;2022-07-05T06:38:46;60.83;46.09;73.77;;
1754;Laerm;58380;48.312;9.246;2022-07-05T06:41:14;71.03;51.50;79.72;;
1754;Laerm;58380;48.312;9.246;2022-07-05T06:43:43;48.93;41.67;58.00;;
1754;Laerm;58380;48.312;9.246;2022-07-05T06:46:14;63.43;42.69;73.67;;
1754;Laerm;58380;48.312;9.246;2022-07-05T06:48:43;58.80;38.40;71.23;;
1754;Laerm;58380;48.312;9.246;2022-07-05T06:51:11;70.06;42.92;80.15;;
1754;Laerm;58380;48.312;9.246;2022-07-05T06:53:40;58.89;42.67;70.86;;
1754;Laerm;58380;48.312;9.246;2022-07-05T06:56:08;46.87;41.08;66.01;;
1754;Laerm;58380;48.312;9.246;2022-07-05T06:58:37;52.44;42.08;63.35;;
1754;Laerm;58380;48.312;9.246;2022-07-05T07:01:06;66.11;42.11;76.03;;
1754;Laerm;58380;48.312;9.246;2022-07-05T07:03:38;55.03;37.70;68.06;;
1754;Laerm;58380;48.312;9.246;2022-07-05T07:06:07;69.49;47.17;77.98;;
1754;Laerm;58380;48.312;9.246;2022-07-05T07:08:35;48.67;40.66;63.52;;
1754;Laerm;58380;48.312;9.246;2022-07-05T07:11:16;67.25;48.95;77.65;;
1754;Laerm;58380;48.312;9.246;2022-07-05T07:13:45;57.02;37.18;68.73;;
1754;Laerm;58380;48.312;9.246;2022-07-05T07:16:14;56.43;40.00;66.57;;
1754;Laerm;58380;48.312;9.246;2022-07-05T07:18:45;53.86;37.36;66.97;;
1754;Laerm;58380;48.312;9.246;2022-07-05T07:21:14;49.35;41.53;62.54;;
1754;Laerm;58380;48.312;9.246;2022-07-05T07:23:46;50.33;40.76;61.53;;
1754;Laerm;58380;48.312;9.246;2022-07-05T07:26:14;69.90;48.94;78.35;;
1754;Laerm;58380;48.312;9.246;2022-07-05T07:28:46;71.96;65.11;82.57;;
1754;Laerm;58380;48.312;9.246;2022-07-05T07:31:14;70.56;47.96;78.82;;
1754;Laerm;58380;48.312;9.246;2022-07-05T07:33:45;52.86;46.36;57.95;;
1754;Laerm;58380;48.312;9.246;2022-07-05T07:36:14;70.28;54.89;80.61;;
1754;Laerm;58380;48.312;9.246;2022-07-05T07:38:43;57.73;50.10;66.95;;
1754;Laerm;58380;48.312;9.246;2022-07-05T07:41:11;71.06;57.49;78.73;;
1754;Laerm;58380;48.312;9.246;2022-07-05T07:43:40;69.18;57.89;75.90;;
1754;Laerm;58380;48.312;9.246;2022-07-05T07:46:09;52.41;37.41;62.08;;
1754;Laerm;58380;48.312;9.246;2022-07-05T07:48:37;51.49;38.54;65.91;;
1754;Laerm;58380;48.312;9.246;2022-07-05T07:51:09;49.16;37.78;66.80;;
1754;Laerm;58380;48.312;9.246;2022-07-05T07:53:38;52.98;40.37;71.28;;
1754;Laerm;58380;48.312;9.246;2022-07-05T07:56:07;51.25;39.82;63.61;;
1754;Laerm;58380;48.312;9.246;2022-07-05T07:58:41;52.00;40.20;65.90;;
1754;Laerm;58380;48.312;9.246;2022-07-05T08:01:10;50.53;39.49;62.99;;
1754;Laerm;58380;48.312;9.246;2022-07-05T08:03:46;50.91;38.10;66.94;;
1754;Laerm;58380;48.312;9.246;2022-07-05T08:06:22;50.00;38.04;63.88;;
1754;Laerm;58380;48.312;9.246;2022-07-05T08:08:53;50.31;43.19;63.02;;
1754;Laerm;58380;48.312;9.246;2022-07-05T08:11:22;52.63;37.86;57.77;;
1754;Laerm;58380;48.312;9.246;2022-07-05T08:13:51;52.71;41.77;60.96;;
1754;Laerm;58380;48.312;9.246;2022-07-05T08:16:20;53.10;38.16;60.40;;
1754;Laerm;58380;48.312;9.246;2022-07-05T08:18:48;50.44;38.71;63.89;;
1754;Laerm;58380;48.312;9.246;2022-07-05T08:21:32;46.37;37.52;55.66;;
1754;Laerm;58380;48.312;9.246;2022-07-05T08:24:05;46.06;35.68;54.44;;
1754;Laerm;58380;48.312;9.246;2022-07-05T08:26:36;43.51;34.15;59.61;;
1754;Laerm;58380;48.312;9.246;2022-07-05T08:29:07;43.04;34.42;65.50;;
1754;Laerm;58380;48.312;9.246;2022-07-05T08:31:39;43.27;35.37;58.09;;
1754;Laerm;58380;48.312;9.246;2022-07-05T08:34:09;44.53;36.86;56.26;;
1754;Laerm;58380;48.312;9.246;2022-07-05T08:36:45;44.75;36.87;58.34;;
1754;Laerm;58380;48.312;9.246;2022-07-05T08:39:15;45.08;33.37;57.28;;
1754;Laerm;58380;48.312;9.246;2022-07-05T08:41:50;42.93;33.50;59.36;;
1754;Laerm;58380;48.312;9.246;2022-07-05T08:44:22;42.98;32.48;60.37;;
1754;Laerm;58380;48.312;9.246;2022-07-05T08:46:51;42.02;33.11;63.90;;
1754;Laerm;58380;48.312;9.246;2022-07-05T08:49:24;42.16;32.77;55.95;;
1754;Laerm;58380;48.312;9.246;2022-07-05T08:51:56;41.71;32.60;58.80;;
1754;Laerm;58380;48.312;9.246;2022-07-05T08:54:25;42.02;33.08;57.52;;
1754;Laerm;58380;48.312;9.246;2022-07-05T08:56:54;42.00;33.61;54.87;;
1754;Laerm;58380;48.312;9.246;2022-07-05T08:59:23;42.81;33.03;57.62;;
1754;Laerm;58380;48.312;9.246;2022-07-05T09:01:53;40.24;32.96;52.11;;
1754;Laerm;58380;48.312;9.246;2022-07-05T09:04:30;43.38;34.84;54.09;;
1754;Laerm;58380;48.312;9.246;2022-07-05T09:07:04;42.17;33.91;58.48;;
1754;Laerm;58380;48.312;9.246;2022-07-05T09:09:38;40.18;32.84;54.02;;
1754;Laerm;58380;48.312;9.246;2022-07-05T09:12:11;42.25;32.49;74.47;;
1754;Laerm;58380;48.312;9.246;2022-07-05T09:14:40;39.79;32.91;53.64;;
1754;Laerm;58380;48.312;9.246;2022-07-05T09:17:10;40.32;33.32;53.49;;
1754;Laerm;58380;48.312;9.246;2022-07-05T09:19:39;39.92;33.62;53.90;;
1754;Laerm;58380;48.312;9.246;2022-07-05T09:22:10;43.08;33.35;60.88;;
1754;Laerm;58380;48.312;9.246;2022-07-05T09:24:45;41.38;33.42;59.68;;
1754;Laerm;58380;48.312;9.246;2022-07-05T09:27:14;43.52;33.15;58.13;;
1754;Laerm;58380;48.312;9.246;2022-07-05T09:29:54;45.06;35.42;63.79;;
1754;Laerm;58380;48.312;9.246;2022-07-05T09:32:24;47.72;35.03;65.78;;
1754;Laerm;58380;48.312;9.246;2022-07-05T09:34:56;52.42;34.97;80.45;;
1754;Laerm;58380;48.312;9.246;2022-07-05T09:37:43;44.63;34.94;56.51;;
1754;Laerm;58380;48.312;9.246;2022-07-05T09:40:13;45.72;34.29;56.99;;
1754;Laerm;58380;48.312;9.246;2022-07-05T09:42:41;43.81;33.89;54.67;;
1754;Laerm;58380;48.312;9.246;2022-07-05T09:45:10;44.45;33.85;62.49;;
1754;Laerm;58380;48.312;9.246;2022-07-05T09:47:39;44.95;33.62;67.87;;
1754;Laerm;58380;48.312;9.246;2022-07-05T09:50:08;47.35;32.46;62.71;;
1754;Laerm;58380;48.312;9.246;2022-07-05T09:52:42;43.67;32.00;59.60;;
1754;Laerm;58380;48.312;9.246;2022-07-05T09:55:15;48.51;33.50;63.33;;
1754;Laerm;58380;48.312;9.246;2022-07-05T09:57:47;45.99;34.57;61.42;;
1754;Laerm;58380;48.312;9.246;2022-07-05T10:00:18;40.41;32.86;56.86;;
1754;Laerm;58380;48.312;9.246;2022-07-05T10:02:50;44.53;32.74;74.34;;
1754;Laerm;58380;48.312;9.246;2022-07-05T10:05:22;44.86;34.76;65.40;;
1754;Laerm;58380;48.312;9.246;2022-07-05T10:07:58;41.69;33.71;55.13;;
1754;Laerm;58380;48.312;9.246;2022-07-05T10:10:30;45.19;33.21;60.92;;
1754;Laerm;58380;48.312;9.246;2022-07-05T10:13:01;42.82;32.59;58.64;;
1754;Laerm;58380;48.312;9.246;2022-07-05T10:15:34;43.52;31.56;60.50;;
1754;Laerm;58380;48.312;9.246;2022-07-05T10:18:06;42.64;32.88;60.64;;
1754;Laerm;58380;48.312;9.246;2022-07-05T10:20:41;44.68;34.24;60.26;;
1754;Laerm;58380;48.312;9.246;2022-07-05T10:23:15;44.05;33.38;59.36;;
1754;Laerm;58380;48.312;9.246;2022-07-05T10:25:46;48.95;35.14;64.12;;
1754;Laerm;58380;48.312;9.246;2022-07-05T10:28:18;42.28;33.87;56.54;;
1754;Laerm;58380;48.312;9.246;2022-07-05T10:30:48;40.01;34.26;52.22;;
1754;Laerm;58380;48.312;9.246;2022-07-05T10:33:19;40.37;31.92;54.92;;
1754;Laerm;58380;48.312;9.246;2022-07-05T10:35:53;38.26;30.68;55.00;;
1754;Laerm;58380;48.312;9.246;2022-07-05T10:38:28;40.82;33.52;55.33;;
1754;Laerm;58380;48.312;9.246;2022-07-05T10:41:01;43.06;34.07;58.46;;
1754;Laerm;58380;48.312;9.246;2022-07-05T10:43:31;41.10;33.20;55.16;;
1754;Laerm;58380;48.312;9.246;2022-07-05T10:46:00;41.19;33.11;65.62;;
1754;Laerm;58380;48.312;9.246;2022-07-05T10:48:33;55.82;31.83;88.03;;
1754;Laerm;58380;48.312;9.246;2022-07-05T10:51:15;42.75;33.21;61.18;;
1754;Laerm;58380;48.312;9.246;2022-07-05T10:54:04;45.04;32.42;65.49;;
1754;Laerm;58380;48.312;9.246;2022-07-05T10:56:33;42.95;33.84;67.79;;
1754;Laerm;58380;48.312;9.246;2022-07-05T10:59:09;42.73;33.50;69.06;;
1754;Laerm;58380;48.312;9.246;2022-07-05T11:01:41;42.87;33.29;66.64;;
1754;Laerm;58380;48.312;9.246;2022-07-05T11:04:29;47.60;32.83;77.22;;
1754;Laerm;58380;48.312;9.246;2022-07-05T11:07:02;39.60;33.76;59.20;;
1754;Laerm;58380;48.312;9.246;2022-07-05T11:09:33;39.35;33.66;55.15;;
1754;Laerm;58380;48.312;9.246;2022-07-05T11:12:08;43.59;36.02;61.45;;
1754;Laerm;58380;48.312;9.246;2022-07-05T11:14:39;43.30;35.04;60.80;;
1754;Laerm;58380;48.312;9.246;2022-07-05T11:20:27;43.37;34.89;67.43;;
1754;Laerm;58380;48.312;9.246;2022-07-05T11:23:08;49.55;33.88;61.95;;
1754;Laerm;58380;48.312;9.246;2022-07-05T11:25:44;41.03;34.21;54.65;;
1754;Laerm;58380;48.312;9.246;2022-07-05T11:28:22;42.12;33.44;60.14;;
1754;Laerm;58380;48.312;9.246;2022-07-05T11:30:57;49.10;32.85;78.10;;
1754;Laerm;58380;48.312;9.246;2022-07-05T11:33:32;40.86;33.59;54.11;;
1754;Laerm;58380;48.312;9.246;2022-07-05T11:36:03;42.23;33.17;54.22;;
1754;Laerm;58380;48.312;9.246;2022-07-05T11:38:32;40.58;32.89;55.00;;
1754;Laerm;58380;48.312;9.246;2022-07-05T11:41:14;45.71;33.49;61.38;;
1754;Laerm;58380;48.312;9.246;2022-07-05T11:43:43;41.20;31.42;55.09;;
1754;Laerm;58380;48.312;9.246;2022-07-05T11:46:26;39.28;31.15;54.42;;
1754;Laerm;58380;48.312;9.246;2022-07-05T11:48:56;40.18;31.76;62.94;;
1754;Laerm;58380;48.312;9.246;2022-07-05T11:51:24;39.50;31.47;53.58;;
1754;Laerm;58380;48.312;9.246;2022-07-05T11:53:53;41.02;31.65;53.51;;
1754;Laerm;58380;48.312;9.246;2022-07-05T11:56:24;40.55;31.70;57.22;;
1754;Laerm;58380;48.312;9.246;2022-07-05T11:58:53;38.28;31.69;54.26;;
1754;Laerm;58380;48.312;9.246;2022-07-05T12:01:21;44.10;33.39;56.80;;
1754;Laerm;58380;48.312;9.246;2022-07-05T12:03:54;40.90;33.95;53.61;;
1754;Laerm;58380;48.312;9.246;2022-07-05T12:06:23;39.43;32.88;58.31;;
1754;Laerm;58380;48.312;9.246;2022-07-05T12:09:04;39.50;33.81;50.23;;
1754;Laerm;58380;48.312;9.246;2022-07-05T12:11:36;39.17;33.37;49.31;;
1754;Laerm;58380;48.312;9.246;2022-07-05T12:14:21;40.85;33.12;54.54;;
1754;Laerm;58380;48.312;9.246;2022-07-05T12:17:09;42.07;32.96;58.59;;
1754;Laerm;58380;48.312;9.246;2022-07-05T12:19:38;40.63;31.92;62.82;;
1754;Laerm;58380;48.312;9.246;2022-07-05T12:22:07;39.90;34.20;54.73;;
1754;Laerm;58380;48.312;9.246;2022-07-05T12:24:36;41.34;34.17;58.43;;
1754;Laerm;58380;48.312;9.246;2022-07-05T12:27:09;41.30;34.15;57.90;;
1754;Laerm;58380;48.312;9.246;2022-07-05T12:29:39;40.15;33.80;55.46;;
1754;Laerm;58380;48.312;9.246;2022-07-05T12:32:08;40.12;32.22;56.32;;
1754;Laerm;58380;48.312;9.246;2022-07-05T12:34:37;42.13;33.69;57.07;;
1754;Laerm;58380;48.312;9.246;2022-07-05T12:37:05;41.59;33.95;55.96;;
1754;Laerm;58380;48.312;9.246;2022-07-05T12:39:34;52.44;33.86;77.42;;
1754;Laerm;58380;48.312;9.246;2022-07-05T12:42:06;49.42;34.88;72.49;;
1754;Laerm;58380;48.312;9.246;2022-07-05T12:44:35;44.29;34.27;63.26;;
1754;Laerm;58380;48.312;9.246;2022-07-05T12:47:05;42.57;34.54;58.96;;
1754;Laerm;58380;48.312;9.246;2022-07-05T12:49:57;55.28;34.62;64.33;;
1754;Laerm;58380;48.312;9.246;2022-07-05T12:52:26;52.72;35.26;62.50;;
1754;Laerm;58380;48.312;9.246;2022-07-05T12:55:10;55.06;35.27;63.64;;
1754;Laerm;58380;48.312;9.246;2022-07-05T12:57:53;55.02;34.72;68.30;;
1754;Laerm;58380;48.312;9.246;2022-07-05T13:00:31;53.66;32.75;61.49;;
1754;Laerm;58380;48.312;9.246;2022-07-05T13:02:59;54.29;35.20;61.56;;
1754;Laerm;58380;48.312;9.246;2022-07-05T13:05:28;48.58;33.41;57.72;;
1754;Laerm;58380;48.312;9.246;2022-07-05T13:07:57;50.02;34.88;60.85;;
1754;Laerm;58380;48.312;9.246;2022-07-05T13:10:27;48.16;33.49;63.58;;
1754;Laerm;58380;48.312;9.246;2022-07-05T13:13:00;50.30;33.59;61.79;;
1754;Laerm;58380;48.312;9.246;2022-07-05T13:15:29;43.33;33.85;58.98;;
1754;Laerm;58380;48.312;9.246;2022-07-05T13:17:57;45.76;35.52;67.70;;
1754;Laerm;58380;48.312;9.246;2022-07-05T13:20:26;43.33;35.48;60.54;;
1754;Laerm;58380;48.312;9.246;2022-07-05T13:22:55;42.81;32.97;59.28;;
1754;Laerm;58380;48.312;9.246;2022-07-05T13:25:25;40.65;33.42;63.72;;
1754;Laerm;58380;48.312;9.246;2022-07-05T13:27:53;48.24;35.10;61.69;;
1754;Laerm;58380;48.312;9.246;2022-07-05T13:30:25;42.02;34.11;57.66;;
1754;Laerm;58380;48.312;9.246;2022-07-05T13:32:53;40.74;33.91;54.61;;
1754;Laerm;58380;48.312;9.246;2022-07-05T13:35:22;41.91;32.93;58.02;;
1754;Laerm;58380;48.312;9.246;2022-07-05T13:37:50;43.10;34.07;63.56;;
1754;Laerm;58380;48.312;9.246;2022-07-05T13:40:19;43.22;34.23;57.90;;
1754;Laerm;58380;48.312;9.246;2022-07-05T13:42:47;44.31;35.32;61.91;;
1754;Laerm;58380;48.312;9.246;2022-07-05T13:45:16;49.32;37.19;57.96;;
1754;Laerm;58380;48.312;9.246;2022-07-05T13:47:47;47.83;38.66;57.70;;
1754;Laerm;58380;48.312;9.246;2022-07-05T13:50:16;46.05;34.99;63.87;;
1754;Laerm;58380;48.312;9.246;2022-07-05T13:53:01;43.90;32.95;59.80;;
1754;Laerm;58380;48.312;9.246;2022-07-05T13:55:30;44.84;37.22;55.61;;
1754;Laerm;58380;48.312;9.246;2022-07-05T13:57:59;42.65;36.22;57.05;;
1754;Laerm;58380;48.312;9.246;2022-07-05T14:00:28;41.23;32.74;53.23;;
1754;Laerm;58380;48.312;9.246;2022-07-05T14:02:59;40.88;32.87;54.75;;
1754;Laerm;58380;48.312;9.246;2022-07-05T14:05:28;42.05;36.18;55.44;;
1754;Laerm;58380;48.312;9.246;2022-07-05T14:07:56;42.79;33.00;59.30;;
1754;Laerm;58380;48.312;9.246;2022-07-05T14:10:25;44.20;36.48;64.18;;
1754;Laerm;58380;48.312;9.246;2022-07-05T14:12:54;45.18;35.43;64.22;;
1754;Laerm;58380;48.312;9.246;2022-07-05T14:15:22;42.62;35.63;53.23;;
1754;Laerm;58380;48.312;9.246;2022-07-05T14:17:51;43.67;33.75;54.27;;
1754;Laerm;58380;48.312;9.246;2022-07-05T14:20:22;47.46;34.64;67.00;;
1754;Laerm;58380;48.312;9.246;2022-07-05T14:22:51;45.24;35.08;57.22;;
1754;Laerm;58380;48.312;9.246;2022-07-05T14:25:19;42.45;33.19;58.61;;
1754;Laerm;58380;48.312;9.246;2022-07-05T14:27:48;40.75;33.36;54.35;;
1754;Laerm;58380;48.312;9.246;2022-07-05T14:30:16;45.68;33.77;60.70;;
1754;Laerm;58380;48.312;9.246;2022-07-05T14:32:45;42.40;32.55;56.19;;
1754;Laerm;58380;48.312;9.246;2022-07-05T14:35:14;39.16;32.29;55.18;;
1754;Laerm;58380;48.312;9.246;2022-07-05T14:37:45;43.86;33.31;60.20;;
1754;Laerm;58380;48.312;9.246;2022-07-05T14:40:13;46.95;37.93;66.31;;
1754;Laerm;58380;48.312;9.246;2022-07-05T14:42:44;44.08;37.69;60.37;;
1754;Laerm;58380;48.312;9.246;2022-07-05T14:45:13;45.99;39.95;56.94;;
1754;Laerm;58380;48.312;9.246;2022-07-05T14:47:41;46.92;40.42;62.43;;
1754;Laerm;58380;48.312;9.246;2022-07-05T14:50:10;48.12;38.99;57.97;;
1754;Laerm;58380;48.312;9.246;2022-07-05T14:52:40;48.09;33.68;73.72;;
1754;Laerm;58380;48.312;9.246;2022-07-05T14:55:12;41.18;33.48;63.24;;
1754;Laerm;58380;48.312;9.246;2022-07-05T14:57:42;39.47;32.49;53.04;;
1754;Laerm;58380;48.312;9.246;2022-07-05T15:00:14;39.67;32.08;54.98;;
1754;Laerm;58380;48.312;9.246;2022-07-05T15:02:43;41.82;31.85;58.29;;
1754;Laerm;58380;48.312;9.246;2022-07-05T15:05:12;37.76;32.22;54.81;;
1754;Laerm;58380;48.312;9.246;2022-07-05T15:07:41;43.85;34.25;58.65;;
1754;Laerm;58380;48.312;9.246;2022-07-05T15:10:13;43.72;33.91;58.79;;
1754;Laerm;58380;48.312;9.246;2022-07-05T15:12:42;42.97;32.52;61.21;;
1754;Laerm;58380;48.312;9.246;2022-07-05T15:15:11;42.35;32.27;57.97;;
1754;Laerm;58380;48.312;9.246;2022-07-05T15:17:40;41.38;31.84;60.74;;
1754;Laerm;58380;48.312;9.246;2022-07-05T15:20:10;42.08;33.91;57.17;;
1754;Laerm;58380;48.312;9.246;2022-07-05T15:22:40;39.04;32.76;61.34;;
1754;Laerm;58380;48.312;9.246;2022-07-05T15:25:09;40.41;34.84;54.48;;
1754;Laerm;58380;48.312;9.246;2022-07-05T15:27:40;41.56;35.10;55.05;;
1754;Laerm;58380;48.312;9.246;2022-07-05T15:30:10;39.53;34.31;49.95;;
1754;Laerm;58380;48.312;9.246;2022-07-05T15:32:40;46.30;34.09;59.54;;
1754;Laerm;58380;48.312;9.246;2022-07-05T15:35:12;41.70;33.82;63.95;;
1754;Laerm;58380;48.312;9.246;2022-07-05T15:37:41;38.49;32.88;56.06;;
1754;Laerm;58380;48.312;9.246;2022-07-05T15:40:11;44.04;32.69;59.95;;
1754;Laerm;58380;48.312;9.246;2022-07-05T15:42:43;42.34;32.75;56.14;;
1754;Laerm;58380;48.312;9.246;2022-07-05T15:45:11;42.31;32.62;56.93;;
1754;Laerm;58380;48.312;9.246;2022-07-05T15:47:40;41.28;32.34;54.12;;
1754;Laerm;58380;48.312;9.246;2022-07-05T15:50:09;38.83;31.89;53.02;;
1754;Laerm;58380;48.312;9.246;2022-07-05T15:52:39;50.25;31.82;73.50;;
1754;Laerm;58380;48.312;9.246;2022-07-05T15:55:10;48.13;33.03;72.81;;
1754;Laerm;58380;48.312;9.246;2022-07-05T15:57:41;46.46;32.37;68.37;;
1754;Laerm;58380;48.312;9.246;2022-07-05T16:00:11;43.27;34.36;62.74;;
1754;Laerm;58380;48.312;9.246;2022-07-05T16:02:40;55.11;33.75;63.04;;
1754;Laerm;58380;48.312;9.246;2022-07-05T16:05:09;55.72;38.43;67.93;;
1754;Laerm;58380;48.312;9.246;2022-07-05T16:07:38;53.75;34.22;70.81;;
1754;Laerm;58380;48.312;9.246;2022-07-05T16:10:08;53.16;34.37;72.51;;
1754;Laerm;58380;48.312;9.246;2022-07-05T16:12:37;45.59;32.47;61.58;;
1754;Laerm;58380;48.312;9.246;2022-07-05T16:15:09;45.77;31.64;62.46;;
1754;Laerm;58380;48.312;9.246;2022-07-05T16:17:58;45.56;31.58;68.18;;
1754;Laerm;58380;48.312;9.246;2022-07-05T16:20:27;51.08;32.84;67.87;;
1754;Laerm;58380;48.312;9.246;2022-07-05T16:22:56;55.86;32.54;71.77;;
1754;Laerm;58380;48.312;9.246;2022-07-05T16:25:25;60.20;33.71;75.47;;
1754;Laerm;58380;48.312;9.246;2022-07-05T16:27:54;59.27;32.76;76.88;;
1754;Laerm;58380;48.312;9.246;2022-07-05T16:30:25;54.25;32.73;66.18;;
1754;Laerm;58380;48.312;9.246;2022-07-05T16:32:54;53.22;33.22;63.53;;
1754;Laerm;58380;48.312;9.246;2022-07-05T16:35:23;43.44;32.56;57.80;;
1754;Laerm;58380;48.312;9.246;2022-07-05T16:37:51;48.36;33.15;65.06;;
1754;Laerm;58380;48.312;9.246;2022-07-05T16:40:20;56.31;32.47;65.38;;
1754;Laerm;58380;48.312;9.246;2022-07-05T16:42:49;54.65;34.47;64.87;;
1754;Laerm;58380;48.312;9.246;2022-07-05T16:45:17;50.68;31.85;65.41;;
1754;Laerm;58380;48.312;9.246;2022-07-05T16:47:49;53.41;31.56;63.49;;
1754;Laerm;58380;48.312;9.246;2022-07-05T16:50:17;40.09;32.91;56.60;;
1754;Laerm;58380;48.312;9.246;2022-07-05T16:52:46;37.23;32.10;50.79;;
1754;Laerm;58380;48.312;9.246;2022-07-05T16:55:15;38.66;32.20;51.51;;
1754;Laerm;58380;48.312;9.246;2022-07-05T16:57:44;42.48;34.70;56.85;;
1754;Laerm;58380;48.312;9.246;2022-07-05T17:00:13;40.91;33.28;57.08;;
1754;Laerm;58380;48.312;9.246;2022-07-05T17:02:42;39.56;32.58;56.09;;
1754;Laerm;58380;48.312;9.246;2022-07-05T17:05:14;37.38;32.04;58.13;;
1754;Laerm;58380;48.312;9.246;2022-07-05T17:07:43;39.00;32.62;59.61;;
1754;Laerm;58380;48.312;9.246;2022-07-05T17:10:12;39.25;32.82;61.39;;
1754;Laerm;58380;48.312;9.246;2022-07-05T17:12:42;40.67;31.84;64.65;;
1754;Laerm;58380;48.312;9.246;2022-07-05T17:15:11;38.64;32.62;62.35;;
1754;Laerm;58380;48.312;9.246;2022-07-05T17:17:40;38.50;31.27;56.56;;
1754;Laerm;58380;48.312;9.246;2022-07-05T17:20:13;37.69;31.63;55.18;;
1754;Laerm;58380;48.312;9.246;2022-07-05T17:22:43;40.52;32.74;55.81;;
1754;Laerm;58380;48.312;9.246;2022-07-05T17:25:14;43.11;33.39;55.00;;
1754;Laerm;58380;48.312;9.246;2022-07-05T17:27:45;42.16;31.47;51.92;;
1754;Laerm;58380;48.312;9.246;2022-07-05T17:30:15;40.07;32.15;52.43;;
1754;Laerm;58380;48.312;9.246;2022-07-05T17:32:43;41.45;32.17;52.48;;
1754;Laerm;58380;48.312;9.246;2022-07-05T17:35:15;44.90;32.48;58.09;;
1754;Laerm;58380;48.312;9.246;2022-07-05T17:37:44;44.20;31.89;58.81;;
1754;Laerm;58380;48.312;9.246;2022-07-05T17:40:12;45.34;32.05;59.53;;
1754;Laerm;58380;48.312;9.246;2022-07-05T17:42:42;43.35;31.55;58.27;;
1754;Laerm;58380;48.312;9.246;2022-07-05T17:45:10;42.48;31.38;57.43;;
1754;Laerm;58380;48.312;9.246;2022-07-05T17:47:39;43.48;31.75;60.07;;
1754;Laerm;58380;48.312;9.246;2022-07-05T17:50:08;42.40;31.20;58.43;;
1754;Laerm;58380;48.312;9.246;2022-07-05T17:52:39;38.25;31.01;52.10;;
1754;Laerm;58380;48.312;9.246;2022-07-05T17:55:09;38.76;31.10;55.98;;
1754;Laerm;58380;48.312;9.246;2022-07-05T17:57:37;39.85;32.96;56.48;;
1754;Laerm;58380;48.312;9.246;2022-07-05T18:00:08;43.15;37.21;55.09;;
1754;Laerm;58380;48.312;9.246;2022-07-05T18:02:36;41.19;34.29;55.07;;
1754;Laerm;58380;48.312;9.246;2022-07-05T18:05:06;42.10;32.86;53.10;;
1754;Laerm;58380;48.312;9.246;2022-07-05T18:07:35;38.83;33.01;51.00;;
1754;Laerm;58380;48.312;9.246;2022-07-05T18:10:07;40.23;32.90;51.76;;
1754;Laerm;58380;48.312;9.246;2022-07-05T18:12:36;39.49;34.26;52.95;;
1754;Laerm;58380;48.312;9.246;2022-07-05T18:15:06;43.59;33.42;59.27;;
1754;Laerm;58380;48.312;9.246;2022-07-05T18:17:35;45.82;34.05;60.02;;
1754;Laerm;58380;48.312;9.246;2022-07-05T18:20:04;43.72;32.69;55.87;;
1754;Laerm;58380;48.312;9.246;2022-07-05T18:22:33;41.12;32.32;54.09;;
1754;Laerm;58380;48.312;9.246;2022-07-05T18:25:02;38.81;31.16;54.19;;
1754;Laerm;58380;48.312;9.246;2022-07-05T18:27:34;37.54;31.20;49.01;;
1754;Laerm;58380;48.312;9.246;2022-07-05T18:30:04;40.39;33.45;57.90;;
1754;Laerm;58380;48.312;9.246;2022-07-05T18:32:33;39.30;31.69;55.43;;
1754;Laerm;58380;48.312;9.246;2022-07-05T18:35:02;39.68;31.28;50.66;;
1754;Laerm;58380;48.312;9.246;2022-07-05T18:37:31;38.80;31.54;55.54;;
1754;Laerm;58380;48.312;9.246;2022-07-05T18:39:59;39.05;31.92;52.40;;
1754;Laerm;58380;48.312;9.246;2022-07-05T18:42:28;38.66;31.24;51.05;;
1754;Laerm;58380;48.312;9.246;2022-07-05T18:44:59;37.78;31.06;50.93;;
1754;Laerm;58380;48.312;9.246;2022-07-05T18:47:28;39.74;31.04;57.00;;
1754;Laerm;58380;48.312;9.246;2022-07-05T18:49:57;38.68;31.34;58.82;;
1754;Laerm;58380;48.312;9.246;2022-07-05T18:52:25;37.18;30.29;56.84;;
1754;Laerm;58380;48.312;9.246;2022-07-05T18:54:54;36.25;30.55;44.87;;
1754;Laerm;58380;48.312;9.246;2022-07-05T18:57:23;36.65;30.75;53.36;;
1754;Laerm;58380;48.312;9.246;2022-07-05T18:59:51;34.84;30.68;51.02;;
1754;Laerm;58380;48.312;9.246;2022-07-05T19:02:24;38.34;31.70;50.28;;
1754;Laerm;58380;48.312;9.246;2022-07-05T19:04:52;36.77;30.99;54.65;;
1754;Laerm;58380;48.312;9.246;2022-07-05T19:07:21;37.74;30.97;63.62;;
1754;Laerm;58380;48.312;9.246;2022-07-05T19:10:03;37.57;31.33;50.61;;
1754;Laerm;58380;48.312;9.246;2022-07-05T19:12:45;39.26;32.25;51.15;;
1754;Laerm;58380;48.312;9.246;2022-07-05T19:15:26;38.91;31.50;55.10;;
1754;Laerm;58380;48.312;9.246;2022-07-05T19:17:57;36.52;31.77;49.05;;
1754;Laerm;58380;48.312;9.246;2022-07-05T19:20:26;40.62;33.10;54.92;;
1754;Laerm;58380;48.312;9.246;2022-07-05T19:22:55;43.45;32.35;69.53;;
1754;Laerm;58380;48.312;9.246;2022-07-05T19:25:24;39.91;31.94;58.42;;
1754;Laerm;58380;48.312;9.246;2022-07-05T19:27:52;40.59;32.81;57.84;;
1754;Laerm;58380;48.312;9.246;2022-07-05T19:30:21;39.43;31.98;56.07;;
1754;Laerm;58380;48.312;9.246;2022-07-05T19:32:51;39.75;32.46;53.52;;
1754;Laerm;58380;48.312;9.246;2022-07-05T19:35:22;39.56;32.58;50.82;;
1754;Laerm;58380;48.312;9.246;2022-07-05T19:37:54;39.70;32.44;55.16;;
1754;Laerm;58380;48.312;9.246;2022-07-05T19:40:26;37.47;32.45;47.05;;
1754;Laerm;58380;48.312;9.246;2022-07-05T19:42:54;39.35;33.29;50.77;;
1754;Laerm;58380;48.312;9.246;2022-07-05T19:45:26;39.27;33.04;51.75;;
1754;Laerm;58380;48.312;9.246;2022-07-05T19:47:55;39.59;32.66;52.68;;
1754;Laerm;58380;48.312;9.246;2022-07-05T19:50:27;37.87;32.45;50.75;;
1754;Laerm;58380;48.312;9.246;2022-07-05T19:52:55;36.65;32.39;47.13;;
1754;Laerm;58380;48.312;9.246;2022-07-05T19:55:24;36.58;32.26;47.12;;